Time,TemperatureF,DewpointF,PressureIn,WindDirection,WindDirectionDegrees,WindSpeedMPH,WindSpeedGustMPH,Humidity,HourlyPrecipIn,Conditions,Clouds,dailyrainin,SoftwareType,DateUTC
2013-03-10 00:01:00,31.1,16.9,30.24,SW,225,0.0,1.3,51,0.00,,,0.00,WSDL version 420,2013-03-10 05:01:00,
2013-03-10 00:21:00,31.4,17.5,30.24,WSW,248,2.3,2.5,52,0.00,,,0.00,WSDL version 420,2013-03-10 05:21:00,
2013-03-10 00:41:00,31.0,17.2,30.24,SSW,203,0.0,0.0,52,-99.99,,,-99.99,WSDL version 420,2013-03-10 05:41:00,
2013-03-10 01:01:00,30.7,17.2,30.24,ESE,113,0.0,2.2,53,0.00,,,0.00,WSDL version 420,2013-03-10 06:01:00,
2013-03-10 01:21:00,29.8,16.8,30.24,ESE,113,0.0,2.0,54,0.00,,,0.00,WSDL version 420,2013-03-10 06:21:00,
2013-03-10 01:41:00,28.7,16.1,30.24,ESE,113,0.0,1.3,55,0.00,,,0.00,WSDL version 420,2013-03-10 06:41:00,
2013-03-10 03:01:00,28.0,16.2,30.24,WSW,241,1.2,2.2,57,0.00,,,0.00,WSDL version 420,2013-03-10 07:01:00,
2013-03-10 03:21:00,28.0,16.6,30.24,South,180,0.2,1.3,58,0.00,,,0.00,WSDL version 420,2013-03-10 07:21:00,
2013-03-10 03:41:00,28.2,17.1,30.24,South,180,1.1,1.3,59,0.00,,,0.00,WSDL version 420,2013-03-10 07:41:00,
2013-03-10 04:01:00,28.2,17.5,30.24,South,176,1.7,2.5,60,0.00,,,0.00,WSDL version 420,2013-03-10 08:01:00,
2013-03-10 04:21:00,29.6,18.7,30.24,SSW,193,1.5,2.9,60,0.00,,,0.00,WSDL version 420,2013-03-10 08:21:00,
2013-03-10 04:41:00,29.3,18.3,30.24,South,180,0.5,2.7,59,0.00,,,0.00,WSDL version 420,2013-03-10 08:41:00,
2013-03-10 05:01:00,28.7,17.7,30.24,SSW,203,0.0,1.6,59,0.00,,,0.00,WSDL version 420,2013-03-10 09:01:00,
2013-03-10 05:21:00,28.4,18.0,30.24,SSW,203,0.7,1.6,61,0.00,,,0.00,WSDL version 420,2013-03-10 09:21:00,
2013-03-10 05:41:00,28.6,17.9,30.24,SSW,203,0.0,0.0,61,0.00,,,0.00,WSDL version 420,2013-03-10 09:41:00,
2013-03-10 06:01:00,27.8,17.7,30.24,SSW,203,0.4,1.6,62,0.00,,,0.00,WSDL version 420,2013-03-10 10:01:00,
2013-03-10 06:21:00,27.6,17.6,30.24,SSW,203,1.2,1.6,62,0.00,,,0.00,WSDL version 420,2013-03-10 10:21:00,
2013-03-10 06:41:00,27.0,16.9,30.27,SSW,203,0.0,2.0,62,0.00,,,0.00,WSDL version 420,2013-03-10 10:41:00,
2013-03-10 07:01:00,26.8,17.1,30.27,SW,218,0.0,2.2,63,0.00,,,0.00,WSDL version 420,2013-03-10 11:01:00,
2013-03-10 07:21:00,26.1,16.7,30.27,WSW,248,0.0,2.0,64,0.00,,,0.00,WSDL version 420,2013-03-10 11:21:00,
2013-03-10 07:41:00,26.1,16.9,30.27,South,180,0.0,0.0,65,0.00,,,0.00,WSDL version 420,2013-03-10 11:41:00,
2013-03-10 08:01:00,26.9,18.0,30.24,East,90,0.3,2.9,66,0.00,,,0.00,WSDL version 420,2013-03-10 12:01:00,
2013-03-10 08:21:00,28.4,19.4,30.27,East,90,0.0,1.1,65,0.00,,,0.00,WSDL version 420,2013-03-10 12:21:00,
2013-03-10 08:41:00,29.6,19.8,30.27,North,349,0.0,2.7,63,0.00,,,0.00,WSDL version 420,2013-03-10 12:41:00,
2013-03-10 09:01:00,31.1,20.9,30.27,East,90,1.9,3.6,62,-99.99,,,-99.99,WSDL version 420,2013-03-10 13:01:00,
2013-03-10 09:21:00,33.2,21.2,30.27,ESE,113,3.8,7.8,61,0.00,,,0.00,WSDL version 420,2013-03-10 13:21:00,
2013-03-10 09:41:00,35.0,21.5,30.27,ESE,109,3.3,8.1,58,0.00,,,0.00,WSDL version 420,2013-03-10 13:41:00,
2013-03-10 10:01:00,36.4,21.8,30.24,NNE,23,1.8,3.8,55,0.00,,,0.00,WSDL version 420,2013-03-10 14:01:00,
2013-03-10 10:21:00,37.8,21.3,30.24,ESE,119,3.2,7.4,51,0.00,,,0.00,WSDL version 420,2013-03-10 14:21:00,
2013-03-10 10:41:00,38.9,22.0,30.24,ESE,103,3.0,5.8,50,0.00,,,0.00,WSDL version 420,2013-03-10 14:41:00,
2013-03-10 11:01:00,39.3,20.3,30.24,ESE,109,6.2,6.7,46,0.00,,,0.00,WSDL version 420,2013-03-10 15:01:00,
2013-03-10 11:21:00,40.8,20.6,30.21,NNE,28,2.8,7.4,44,0.00,,,0.00,WSDL version 420,2013-03-10 15:21:00,
2013-03-10 11:41:00,42.7,21.4,30.21,ENE,71,2.3,6.3,42,0.00,,,0.00,WSDL version 420,2013-03-10 15:41:00,
2013-03-10 12:01:00,43.8,21.3,30.21,West,280,3.9,7.2,40,0.00,,,0.00,WSDL version 420,2013-03-10 16:01:00,
2013-03-10 12:21:00,44.4,21.5,30.21,East,96,2.3,5.8,40,0.00,,,0.00,WSDL version 420,2013-03-10 16:21:00,
2013-03-10 12:41:00,46.0,22.5,30.21,East,87,2.2,6.0,39,0.00,,,0.00,WSDL version 420,2013-03-10 16:41:00,
2013-03-10 13:01:00,47.1,22.7,30.21,SE,133,5.7,6.5,38,0.00,,,0.00,WSDL version 420,2013-03-10 17:01:00,
2013-03-10 13:21:00,49.2,24.1,30.18,SSW,205,5.2,8.1,37,-99.99,,,-99.99,WSDL version 420,2013-03-10 17:21:00,
2013-03-10 13:41:00,48.1,23.0,30.15,South,172,3.5,5.8,37,0.00,,,0.00,WSDL version 420,2013-03-10 17:41:00,
2013-03-10 14:01:00,49.3,23.7,30.15,ESE,106,0.5,5.4,37,0.00,,,0.00,WSDL version 420,2013-03-10 18:01:00,
2013-03-10 14:21:00,51.1,24.9,30.15,SW,229,4.0,8.5,36,0.00,,,0.00,WSDL version 420,2013-03-10 18:21:00,
2013-03-10 14:41:00,52.5,24.8,30.15,South,188,4.4,7.4,33,-99.99,,,-99.99,WSDL version 420,2013-03-10 18:41:00,
2013-03-10 14:51:00,52.0,22.9,30.15,East,79,3.2,8.5,32,0.00,,,0.00,WSDL version 420,2013-03-10 18:51:00,
2013-03-10 15:01:00,52.8,23.1,30.15,South,174,3.4,6.3,31,0.00,,,0.00,WSDL version 420,2013-03-10 19:01:00,
2013-03-10 15:11:00,52.2,22.5,30.15,SSE,161,6.7,8.5,31,0.00,,,0.00,WSDL version 420,2013-03-10 19:11:00,
2013-03-10 15:21:00,52.9,22.9,30.15,ESE,107,4.7,10.1,31,0.00,,,0.00,WSDL version 420,2013-03-10 19:21:00,
2013-03-10 15:31:00,52.2,21.8,30.15,West,270,2.4,8.5,30,0.00,,,0.00,WSDL version 420,2013-03-10 19:31:00,
2013-03-10 15:41:00,52.0,21.7,30.12,ESE,110,5.3,11.0,30,0.00,,,0.00,WSDL version 420,2013-03-10 19:41:00,
2013-03-10 15:52:00,52.3,21.8,30.12,SW,215,4.2,8.1,30,0.00,,,0.00,WSDL version 420,2013-03-10 19:52:00,
2013-03-10 16:02:00,50.9,21.4,30.12,West,270,1.7,6.3,31,-99.99,,,-99.99,WSDL version 420,2013-03-10 20:02:00,
2013-03-10 16:11:00,49.8,20.6,30.12,SSE,164,2.4,6.5,32,0.00,,,0.00,WSDL version 420,2013-03-10 20:11:00,
2013-03-10 16:21:00,49.2,20.3,30.12,SSW,203,1.8,4.3,32,0.00,,,0.00,WSDL version 420,2013-03-10 20:21:00,
2013-03-10 16:31:00,49.2,20.3,30.12,SSW,203,3.7,8.5,32,0.00,,,0.00,WSDL version 420,2013-03-10 20:31:00,
2013-03-10 16:41:00,49.4,20.8,30.12,SE,141,2.3,7.6,32,0.00,,,0.00,WSDL version 420,2013-03-10 20:41:00,
2013-03-10 16:51:00,49.6,21.0,30.12,SSE,155,3.3,8.5,32,0.00,,,0.00,WSDL version 420,2013-03-10 20:51:00,
2013-03-10 17:01:00,49.6,20.9,30.12,SE,127,3.7,6.5,32,0.00,,,0.00,WSDL version 420,2013-03-10 21:01:00,
2013-03-10 17:11:00,48.9,20.4,30.12,SSE,158,2.6,6.7,32,0.00,,,0.00,WSDL version 420,2013-03-10 21:11:00,
2013-03-10 17:22:00,48.2,19.8,30.09,SSW,199,3.5,6.3,32,0.00,,,0.00,WSDL version 420,2013-03-10 21:22:00,
2013-03-10 17:31:00,47.5,19.8,30.09,SW,221,3.0,7.8,33,0.00,,,0.00,WSDL version 420,2013-03-10 21:31:00,
2013-03-10 17:41:00,46.9,19.3,30.06,SE,124,4.0,6.0,33,0.00,,,0.00,WSDL version 420,2013-03-10 21:41:00,
2013-03-10 17:52:00,46.5,19.6,30.09,WSW,248,1.9,4.9,34,0.00,,,0.00,WSDL version 420,2013-03-10 21:52:00,
2013-03-10 18:01:00,45.9,19.8,30.09,SSW,206,2.7,5.4,35,0.00,,,0.00,WSDL version 420,2013-03-10 22:01:00,
2013-03-10 18:12:00,44.9,19.9,30.09,SW,225,0.8,3.4,37,0.00,,,0.00,WSDL version 420,2013-03-10 22:12:00,
2013-03-10 18:22:00,44.0,20.0,30.09,West,267,1.2,5.4,38,0.00,,,0.00,WSDL version 420,2013-03-10 22:22:00,
2013-03-10 18:31:00,43.3,19.4,30.09,SSW,194,1.3,2.9,38,0.00,,,0.00,WSDL version 420,2013-03-10 22:31:00,
2013-03-10 18:41:00,42.8,19.3,30.09,WSW,252,3.0,3.8,39,0.00,,,0.00,WSDL version 420,2013-03-10 22:41:00,
2013-03-10 18:51:00,42.1,19.0,30.09,ESE,120,2.5,4.9,39,0.00,,,0.00,WSDL version 420,2013-03-10 22:51:00,
2013-03-10 19:02:00,42.3,19.1,30.09,South,183,1.4,3.6,39,0.00,,,0.00,WSDL version 420,2013-03-10 23:02:00,
2013-03-10 19:12:00,42.3,19.1,30.09,SW,229,0.4,2.9,39,0.00,,,0.00,WSDL version 420,2013-03-10 23:12:00,
2013-03-10 19:22:00,41.2,18.7,30.09,SW,233,1.7,2.7,40,0.00,,,0.00,WSDL version 420,2013-03-10 23:22:00,
2013-03-10 19:31:00,40.6,18.8,30.09,WSW,248,1.7,3.1,41,0.00,,,0.00,WSDL version 420,2013-03-10 23:31:00,
2013-03-10 19:41:00,41.0,18.6,30.09,SSW,203,0.0,2.0,40,0.00,,,0.00,WSDL version 420,2013-03-10 23:41:00,
2013-03-10 19:51:00,41.0,18.5,30.09,SW,229,1.5,2.9,40,0.00,,,0.00,WSDL version 420,2013-03-10 23:51:00,
2013-03-10 20:01:00,41.0,18.7,30.09,SSW,212,1.7,2.9,40,0.00,,,0.00,WSDL version 420,2013-03-11 00:01:00,
2013-03-10 20:12:00,41.0,19.0,30.09,South,176,2.4,4.3,41,0.00,,,0.00,WSDL version 420,2013-03-11 00:12:00,
2013-03-10 20:21:00,41.4,18.9,30.09,ENE,71,2.0,4.7,40,0.00,,,0.00,WSDL version 420,2013-03-11 00:21:00,
2013-03-10 20:31:00,41.5,19.0,30.09,South,190,1.1,4.0,40,-99.99,,,-99.99,WSDL version 420,2013-03-11 00:31:00,
2013-03-10 20:41:00,40.9,18.5,30.09,East,84,1.7,4.0,40,0.00,,,0.00,WSDL version 420,2013-03-11 00:41:00,
2013-03-10 20:51:00,40.5,18.7,30.09,WSW,248,0.6,4.0,41,0.00,,,0.00,WSDL version 420,2013-03-11 00:51:00,
2013-03-10 21:03:00,39.8,18.6,30.09,SE,140,2.0,4.0,42,0.00,,,0.00,WSDL version 420,2013-03-11 01:03:00,
2013-03-10 21:15:00,40.2,19.1,30.06,South,188,1.0,5.6,42,0.00,,,0.00,WSDL version 420,2013-03-11 01:15:00,
2013-03-10 21:25:00,39.9,18.9,30.06,West,259,1.2,2.9,43,0.00,,,0.00,WSDL version 420,2013-03-11 01:25:00,
2013-03-10 21:35:00,39.3,18.7,30.12,SW,228,0.5,3.4,43,0.00,,,0.00,WSDL version 420,2013-03-11 01:35:00,
2013-03-10 21:45:00,38.7,18.9,30.12,WSW,248,1.9,4.0,45,0.00,,,0.00,WSDL version 420,2013-03-11 01:45:00,
2013-03-10 21:57:00,38.3,19.1,30.09,West,270,3.1,3.8,46,0.00,,,0.00,WSDL version 420,2013-03-11 01:57:00,
2013-03-10 22:07:00,38.6,19.6,30.09,West,276,1.2,4.0,46,0.00,,,0.00,WSDL version 420,2013-03-11 02:07:00,
2013-03-10 22:17:00,38.0,19.2,30.09,SW,228,1.8,4.0,47,0.00,,,0.00,WSDL version 420,2013-03-11 02:17:00,
2013-03-10 22:27:00,38.4,19.9,30.09,West,280,1.9,2.9,47,0.00,,,0.00,WSDL version 420,2013-03-11 02:27:00,
2013-03-10 22:37:00,38.8,20.8,30.09,East,100,1.8,3.8,48,0.00,,,0.00,WSDL version 420,2013-03-11 02:37:00,
2013-03-10 22:47:00,38.0,20.1,30.09,WNW,303,1.4,2.9,48,0.00,,,0.00,WSDL version 420,2013-03-11 02:47:00,
2013-03-10 22:57:00,38.0,20.3,30.12,East,84,1.6,3.8,49,0.00,,,0.00,WSDL version 420,2013-03-11 02:57:00,
2013-03-10 23:07:00,38.3,20.8,30.12,SSW,200,1.6,3.6,49,0.00,,,0.00,WSDL version 420,2013-03-11 03:07:00,
2013-03-10 23:17:00,38.4,20.9,30.12,SSW,197,1.2,3.1,49,0.00,,,0.00,WSDL version 420,2013-03-11 03:17:00,
2013-03-10 23:27:00,38.6,21.1,30.12,West,264,1.9,4.3,50,0.00,,,0.00,WSDL version 420,2013-03-11 03:27:00,
2013-03-10 23:37:00,38.8,21.7,30.12,West,264,3.3,6.7,50,0.00,,,0.00,WSDL version 420,2013-03-11 03:37:00,
2013-03-10 23:47:00,39.3,21.8,30.12,SSW,212,2.2,7.8,49,0.00,,,0.00,WSDL version 420,2013-03-11 03:47:00,
2013-03-10 23:57:00,39.3,22.1,30.12,SW,219,2.7,6.0,50,0.00,,,0.00,WSDL version 420,2013-03-11 03:57:00,